KMPV/MPV METAR and TAF weather

Enter ICAO airport designator
Station Type Date Time Source
KMPV METAR 2019/10/15 17:51 UTC NOAA

KMPV 151751Z AUTO VRB06KT 10SM CLR 12/M02 A3011 RMK AO2 SLP203 T01171017 10122 20017 58014


Station Type Date Time Source
KMPV Decoded METAR 2019/10/15 17:51 UTC NOAA

KNAPP STATE AIRPORT, VT, United States (KMPV) 44-12N 072-34W 343M
Oct 15, 2019 - 01:51 PM EDT / 2019.10.15 1751 UTC
Wind: Variable at 7 MPH (6 KT):0
Visibility: 10 mile(s):0
Sky conditions: clear
Temperature: 53.1 F (11.7 C)
Dew Point: 28.9 F (-1.7 C)
Relative Humidity: 39%
Pressure (altimeter): 30.11 in. Hg (1019 hPa)
Pressure tendency: 0.04 inches (1.4 hPa) lower than three hours ago
ob: KMPV 151751Z AUTO VRB06KT 10SM CLR 12/M02 A3011 RMK AO2 SLP203 T01171017 10122 20017 58014
cycle: 18

Station Type Date Time Source
KMPV TAF 2019/10/15 18:27 UTC NOAA

TAF KMPV 151725Z 1518/1618 VRB06KT P6SM FEW180
FM161500 16013KT P6SM FEW250
FM161700 15015G23KT P6SM SCT250

Example: see airport list